Time;durP1;ratioP1;P1;durP2;ratioP2;P2;SDS_P1;SDS_P2;PMS_P1;PMS_P2;Temp;Humidity;BMP_temperature;BMP_pressure;BME280_temperature;BME280_humidity;BME280_pressure;Samples;Min_cycle;Max_cycle;Signal;HPM_P1;HPM_P2
2023/08/18 00:00:30;;;;;;;7.72;6.07;;;18.00;99.90;;;;;;5056587;28;20219;-92
2023/08/18 00:03:19;;;;;;;8.75;5.95;;;18.10;99.90;;;;;;5067795;28;20192;-92
2023/08/18 00:05:47;;;;;;;8.25;6.05;;;18.00;99.90;;;;;;5062155;28;20251;-92
2023/08/18 00:08:23;;;;;;;7.82;6.20;;;18.00;99.90;;;;;;5056623;28;20213;-91
2023/08/18 00:11:02;;;;;;;;;;;;;;;;;;;;;
2023/08/18 00:14:06;;;;;;;8.63;5.45;;;17.90;99.90;;;;;;5036392;28;20551;-91
2023/08/18 00:16:56;;;;;;;9.15;5.32;;;18.00;99.90;;;;;;5043642;28;20237;-92
2023/08/18 00:19:33;;;;;;;7.70;5.72;;;17.90;99.90;;;;;;5059257;28;20239;-92
2023/08/18 00:22:43;;;;;;;7.55;5.22;;;18.00;99.90;;;;;;5065959;28;20245;-92
2023/08/18 00:25:24;;;;;;;8.10;5.22;;;18.00;99.90;;;;;;5071392;28;20270;-92
2023/08/18 00:27:56;;;;;;;6.78;4.85;;;18.00;99.90;;;;;;5056498;28;20207;-93
2023/08/18 00:30:46;;;;;;;7.43;4.97;;;18.00;99.90;;;;;;5055610;28;20250;-92
2023/08/18 00:33:18;;;;;;;7.35;4.68;;;18.00;99.90;;;;;;5055438;28;20205;-93
2023/08/18 00:36:20;;;;;;;9.80;5.20;;;18.00;99.90;;;;;;5055042;28;20543;-93
2023/08/18 00:38:58;;;;;;;7.75;4.78;;;18.00;99.90;;;;;;5054900;28;20709;-94
2023/08/18 00:41:34;;;;;;;6.43;4.97;;;18.00;99.90;;;;;;5063963;28;20882;-92
2023/08/18 00:44:08;;;;;;;7.75;5.10;;;18.00;99.90;;;;;;5054509;28;20212;-92
2023/08/18 00:46:41;;;;;;;7.90;5.03;;;17.90;99.90;;;;;;5051892;28;20286;-93
2023/08/18 00:49:15;;;;;;;9.95;5.93;;;18.00;99.90;;;;;;5046531;28;20208;-93
2023/08/18 00:51:48;;;;;;;7.93;6.00;;;17.90;99.90;;;;;;5055207;28;20197;-93
2023/08/18 00:54:20;;;;;;;7.68;5.35;;;17.90;99.90;;;;;;5055056;28;20208;-93
2023/08/18 00:56:52;;;;;;;7.82;6.05;;;17.90;99.90;;;;;;5055109;28;20247;-92
2023/08/18 00:59:36;;;;;;;9.05;5.80;;;18.00;99.90;;;;;;5055682;28;20228;-91
2023/08/18 01:02:21;;;;;;;7.25;5.70;;;17.90;99.90;;;;;;5076526;28;20681;-91
2023/08/18 01:05:11;;;;;;;8.90;6.45;;;17.90;99.90;;;;;;5063199;28;20202;-92
2023/08/18 01:07:43;;;;;;;9.68;7.05;;;17.90;99.90;;;;;;5041928;28;20209;-93
2023/08/18 01:10:27;;;;;;;;;;;;;;;;;;;;;
2023/08/18 01:13:51;;;;;;;9.20;7.03;;;17.90;99.90;;;;;;5068046;28;20208;-92
2023/08/18 01:16:28;;;;;;;9.00;6.72;;;17.80;99.90;;;;;;5042245;28;20209;-91
2023/08/18 01:19:05;;;;;;;11.35;7.00;;;17.80;99.90;;;;;;5061156;28;20867;-93
2023/08/18 01:22:12;;;;;;;11.27;8.07;;;17.80;99.90;;;;;;5059453;28;20208;-93
2023/08/18 01:24:50;;;;;;;13.30;8.00;;;17.80;99.90;;;;;;5074497;28;20193;-92
2023/08/18 01:27:33;;;;;;;12.50;7.82;;;17.80;99.90;;;;;;5048562;28;20658;-93
2023/08/18 01:30:18;;;;;;;10.27;7.10;;;17.80;99.90;;;;;;5052941;28;20208;-92
2023/08/18 01:33:04;;;;;;;11.48;7.45;;;17.80;99.90;;;;;;5075936;28;20220;-92
2023/08/18 01:35:48;;;;;;;12.32;7.63;;;17.80;99.90;;;;;;5082813;28;20192;-92
2023/08/18 01:38:34;;;;;;;11.15;7.43;;;17.80;99.90;;;;;;5067192;28;20809;-93
2023/08/18 01:41:11;;;;;;;12.73;7.47;;;17.80;99.90;;;;;;5065740;28;20275;-92
2023/08/18 01:44:04;;;;;;;14.52;9.25;;;17.80;99.90;;;;;;5055408;28;20642;-92
2023/08/18 01:46:51;;;;;;;13.95;8.68;;;17.80;99.90;;;;;;5062087;28;20212;-92
2023/08/18 01:49:24;;;;;;;13.32;8.23;;;17.70;99.90;;;;;;5052782;28;20204;-92
2023/08/18 01:52:05;;;;;;;15.85;9.57;;;17.80;99.90;;;;;;5061984;28;20254;-92
2023/08/18 01:54:45;;;;;;;18.42;8.88;;;17.80;99.90;;;;;;5061716;28;20208;-92
2023/08/18 01:57:24;;;;;;;14.30;8.85;;;17.90;99.90;;;;;;5060416;28;20235;-92
2023/08/18 01:59:54;;;;;;;17.50;9.68;;;17.80;99.90;;;;;;5048227;28;20228;-92
2023/08/18 02:02:25;;;;;;;16.15;9.32;;;17.80;99.90;;;;;;5059258;28;20221;-91
2023/08/18 02:05:01;;;;;;;17.90;9.48;;;17.80;99.90;;;;;;5060110;28;20672;-92
2023/08/18 02:07:34;;;;;;;17.58;9.90;;;17.80;99.90;;;;;;5060850;28;20307;-91
2023/08/18 02:10:29;;;;;;;16.00;10.02;;;17.80;99.90;;;;;;5065151;28;20191;-93
2023/08/18 02:13:14;;;;;;;14.98;9.52;;;17.70;99.90;;;;;;5098488;28;20532;-92
2023/08/18 02:15:59;;;;;;;17.02;10.32;;;17.80;99.90;;;;;;5046218;28;20212;-91
2023/08/18 02:18:29;;;;;;;17.80;9.40;;;17.90;99.90;;;;;;5040046;28;20297;-92
2023/08/18 02:21:02;;;;;;;17.38;9.48;;;17.80;99.90;;;;;;5080582;28;20283;-92
2023/08/18 02:23:53;;;;;;;16.75;9.43;;;17.80;99.90;;;;;;5073522;28;20227;-94
2023/08/18 02:26:28;;;;;;;17.88;10.27;;;17.80;99.90;;;;;;5062787;28;20213;-92
2023/08/18 02:29:01;;;;;;;16.30;10.00;;;17.80;99.90;;;;;;5068524;28;20209;-92
2023/08/18 02:31:34;;;;;;;19.20;10.50;;;17.80;99.90;;;;;;5067930;28;20218;-92
2023/08/18 02:34:14;;;;;;;19.38;11.18;;;17.80;99.90;;;;;;5064483;28;20208;-91
2023/08/18 02:36:46;;;;;;;15.85;10.40;;;17.90;99.90;;;;;;5053544;28;20209;-92
2023/08/18 02:39:23;;;;;;;19.05;11.15;;;17.80;99.90;;;;;;5073954;28;20247;-92
2023/08/18 02:42:15;;;;;;;18.73;10.38;;;17.80;99.90;;;;;;5074310;28;20216;-91
2023/08/18 02:44:47;;;;;;;16.88;10.48;;;17.80;99.90;;;;;;5076700;28;20196;-91
2023/08/18 02:47:20;;;;;;;18.50;11.60;;;17.80;99.90;;;;;;5073621;28;20239;-91
2023/08/18 02:50:15;;;;;;;19.77;10.70;;;17.70;99.90;;;;;;5070063;28;20199;-95
2023/08/18 02:52:55;;;;;;;19.10;11.85;;;17.80;99.90;;;;;;5078509;28;20575;-92
2023/08/18 02:55:28;;;;;;;17.23;10.98;;;17.90;99.90;;;;;;5086183;28;20231;-93
2023/08/18 02:58:03;;;;;;;18.17;10.75;;;17.80;99.90;;;;;;5086588;28;20253;-92
2023/08/18 03:01:00;;;;;;;18.95;11.38;;;17.90;99.90;;;;;;5087968;28;20197;-93
2023/08/18 03:03:35;;;;;;;16.05;10.73;;;17.90;99.90;;;;;;5071356;28;20193;-93
2023/08/18 03:06:05;;;;;;;20.15;11.73;;;17.90;99.90;;;;;;5071798;28;20185;-91
2023/08/18 03:08:38;;;;;;;17.40;10.77;;;17.80;99.90;;;;;;5069515;28;20235;-90
2023/08/18 03:11:08;;;;;;;19.58;11.50;;;17.90;99.90;;;;;;5070464;28;20265;-91
2023/08/18 03:13:36;;;;;;;18.83;10.93;;;17.90;99.90;;;;;;5069328;28;20218;-90
2023/08/18 03:16:04;;;;;;;18.40;11.48;;;17.90;99.90;;;;;;5069902;28;20246;-92
2023/08/18 03:18:38;;;;;;;21.08;11.60;;;17.90;99.90;;;;;;5071161;28;20288;-90
2023/08/18 03:21:07;;;;;;;18.45;11.52;;;17.90;99.90;;;;;;5058482;28;20253;-92
2023/08/18 03:24:07;;;;;;;18.60;11.88;;;18.00;99.90;;;;;;5063499;28;20235;-93
2023/08/18 03:26:44;;;;;;;17.95;10.48;;;18.00;99.90;;;;;;5056844;28;20641;-92
2023/08/18 03:29:17;;;;;;;19.15;12.00;;;18.00;99.90;;;;;;5053875;28;20204;-92
2023/08/18 03:31:58;;;;;;;16.05;10.48;;;18.00;99.90;;;;;;5041968;28;20245;-90
2023/08/18 03:34:39;;;;;;;;;;;;;;;;;;;;;
2023/08/18 03:37:42;;;;;;;17.75;10.75;;;18.00;99.90;;;;;;5060932;28;20185;-92
2023/08/18 03:40:51;;;;;;;20.58;11.43;;;18.00;99.90;;;;;;5077388;28;20265;-93
2023/08/18 03:43:24;;;;;;;18.27;10.93;;;17.90;99.90;;;;;;5086823;28;20287;-92
2023/08/18 03:46:05;;;;;;;18.88;11.40;;;17.90;99.90;;;;;;5071925;28;20201;-91
2023/08/18 03:49:05;;;;;;;19.73;11.18;;;17.90;99.90;;;;;;5048767;28;20216;-92
2023/08/18 03:51:51;;;;;;;19.35;11.43;;;18.00;99.90;;;;;;5087551;27;20181;-93
2023/08/18 03:54:41;;;;;;;20.15;11.57;;;17.90;99.90;;;;;;5075843;28;20338;-91
2023/08/18 03:57:20;;;;;;;18.55;11.98;;;18.00;99.90;;;;;;5067135;28;20239;-89
2023/08/18 03:59:50;;;;;;;18.85;11.55;;;17.90;99.90;;;;;;5074349;28;20239;-89
2023/08/18 04:02:29;;;;;;;19.85;12.18;;;18.00;99.90;;;;;;5072624;28;20217;-90
2023/08/18 04:05:14;;;;;;;21.40;11.75;;;18.00;99.90;;;;;;5070714;28;20209;-90
2023/08/18 04:07:53;;;;;;;17.70;11.23;;;17.90;99.90;;;;;;5070659;28;20228;-89
2023/08/18 04:10:33;;;;;;;21.40;11.90;;;17.90;99.90;;;;;;5072798;28;20213;-88
2023/08/18 04:13:17;;;;;;;20.55;12.32;;;17.90;99.90;;;;;;5065557;28;20236;-92
2023/08/18 04:15:54;;;;;;;17.38;11.02;;;17.90;99.90;;;;;;5069524;28;20657;-91
2023/08/18 04:18:22;;;;;;;23.48;11.82;;;17.90;99.90;;;;;;5056087;28;20201;-92
2023/08/18 04:21:12;;;;;;;18.38;11.40;;;17.90;99.90;;;;;;5042078;28;20254;-93
2023/08/18 04:23:57;;;;;;;18.48;11.35;;;17.90;99.90;;;;;;5058864;28;20225;-92
2023/08/18 04:26:29;;;;;;;24.13;12.75;;;17.90;99.90;;;;;;5061568;28;20250;-93
2023/08/18 04:29:06;;;;;;;23.38;12.07;;;17.90;99.90;;;;;;5068162;28;20190;-93
2023/08/18 04:31:41;;;;;;;16.77;10.43;;;17.90;99.90;;;;;;5067709;28;20219;-90
2023/08/18 04:37:46;;;;;;;18.40;10.98;;;18.00;99.90;;;;;;5097204;28;20189;-92
2023/08/18 04:40:24;;;;;;;22.52;12.15;;;17.90;99.90;;;;;;5073281;28;20440;-93
2023/08/18 04:43:09;;;;;;;16.13;10.63;;;17.90;99.90;;;;;;5060045;28;20209;-91
2023/08/18 04:45:40;;;;;;;18.88;12.55;;;17.90;99.90;;;;;;5090991;22;20670;-83
2023/08/18 04:48:07;;;;;;;21.55;12.63;;;17.80;99.90;;;;;;5122005;22;20231;-84
2023/08/18 04:50:34;;;;;;;19.70;12.25;;;17.90;99.90;;;;;;5111243;28;20268;-84
2023/08/18 04:53:01;;;;;;;18.67;10.35;;;17.80;99.90;;;;;;5095267;27;20202;-85
2023/08/18 04:55:28;;;;;;;18.50;10.88;;;17.80;99.90;;;;;;5098054;27;20596;-84
2023/08/18 04:57:55;;;;;;;19.50;12.02;;;17.90;99.90;;;;;;5116928;27;20210;-84
2023/08/18 05:00:23;;;;;;;19.83;11.68;;;17.90;99.90;;;;;;5100674;27;20241;-83
2023/08/18 05:02:50;;;;;;;19.90;11.25;;;17.90;99.90;;;;;;5113439;27;20215;-84
2023/08/18 05:05:18;;;;;;;21.15;11.45;;;17.90;99.90;;;;;;5096837;27;20203;-85
2023/08/18 05:07:45;;;;;;;23.85;12.20;;;18.00;99.90;;;;;;5118851;27;20598;-84
2023/08/18 05:10:12;;;;;;;18.20;10.65;;;18.00;99.90;;;;;;5120562;27;20240;-83
2023/08/18 05:12:39;;;;;;;19.85;11.32;;;18.00;99.90;;;;;;5096280;28;20569;-84
2023/08/18 05:15:07;;;;;;;17.48;10.93;;;18.00;99.90;;;;;;5114182;27;20214;-81
2023/08/18 05:17:34;;;;;;;18.38;10.43;;;18.10;99.90;;;;;;5113563;27;20210;-83
2023/08/18 05:20:01;;;;;;;21.30;11.93;;;18.10;99.90;;;;;;5108662;27;20222;-83
2023/08/18 05:22:28;;;;;;;21.77;11.63;;;18.10;99.90;;;;;;5107059;27;20191;-83
2023/08/18 05:24:56;;;;;;;18.85;11.52;;;18.10;99.90;;;;;;5100403;27;20195;-84
2023/08/18 05:27:23;;;;;;;20.70;12.38;;;18.10;99.90;;;;;;5110580;27;20217;-82
2023/08/18 05:29:51;;;;;;;20.35;11.15;;;18.10;99.90;;;;;;5128505;27;20195;-83
2023/08/18 05:32:17;;;;;;;15.52;9.73;;;18.20;99.90;;;;;;5117855;27;20216;-83
2023/08/18 05:34:44;;;;;;;22.25;12.13;;;18.20;99.90;;;;;;5093067;27;20195;-83
2023/08/18 05:37:11;;;;;;;18.95;10.43;;;18.30;99.90;;;;;;5118561;27;20198;-82
2023/08/18 05:39:38;;;;;;;16.85;10.65;;;18.30;99.90;;;;;;5074067;28;20223;-82
2023/08/18 05:42:05;;;;;;;18.60;10.45;;;18.30;99.90;;;;;;5115221;27;20198;-84
2023/08/18 05:44:32;;;;;;;17.30;11.02;;;18.30;99.90;;;;;;5112073;28;20203;-82
2023/08/18 05:46:59;;;;;;;18.23;11.43;;;18.30;99.90;;;;;;5105554;27;20720;-81
2023/08/18 05:49:26;;;;;;;18.80;10.95;;;18.40;99.90;;;;;;5122536;27;20202;-83
2023/08/18 05:51:53;;;;;;;16.98;10.32;;;18.50;99.90;;;;;;5120930;27;20564;-82
2023/08/18 05:54:20;;;;;;;17.80;9.95;;;18.40;99.90;;;;;;5131226;27;20199;-82
2023/08/18 05:56:46;;;;;;;17.33;10.18;;;18.50;99.90;;;;;;5120688;27;20286;-83
2023/08/18 05:59:13;;;;;;;22.77;11.25;;;18.60;99.90;;;;;;5129569;27;20226;-84
2023/08/18 06:01:40;;;;;;;17.75;10.57;;;18.70;99.90;;;;;;5095984;28;20207;-82
2023/08/18 06:04:07;;;;;;;16.10;10.30;;;18.70;99.90;;;;;;5109344;28;20586;-82
2023/08/18 06:06:35;;;;;;;16.58;10.48;;;18.70;99.90;;;;;;5091597;28;20264;-80
2023/08/18 06:09:01;;;;;;;16.17;11.02;;;18.80;99.90;;;;;;5098669;28;20669;-83
2023/08/18 06:11:28;;;;;;;18.95;11.13;;;18.90;99.90;;;;;;5086091;27;20199;-84
2023/08/18 06:13:55;;;;;;;16.85;9.90;;;19.00;99.90;;;;;;5127951;27;20198;-81
2023/08/18 06:16:22;;;;;;;15.43;9.65;;;19.20;99.90;;;;;;5099641;27;20207;-83
2023/08/18 06:18:49;;;;;;;15.35;9.60;;;19.20;99.90;;;;;;5112063;27;20202;-84
2023/08/18 06:21:16;;;;;;;13.80;9.75;;;19.20;99.90;;;;;;5110518;28;20245;-81
2023/08/18 06:23:42;;;;;;;19.45;10.50;;;19.40;99.90;;;;;;5102015;28;20264;-82
2023/08/18 06:26:09;;;;;;;17.33;10.73;;;19.40;99.90;;;;;;5102255;27;20275;-82
2023/08/18 06:28:36;;;;;;;13.27;9.38;;;19.40;99.90;;;;;;5096889;28;20199;-81
2023/08/18 06:31:07;;;;;;;17.55;9.77;;;19.50;99.90;;;;;;5106102;27;20211;-81
2023/08/18 06:33:37;;;;;;;16.98;10.27;;;19.60;99.90;;;;;;5108828;28;20191;-83
2023/08/18 06:36:04;;;;;;;16.95;9.95;;;19.50;99.90;;;;;;5117501;27;20207;-83
2023/08/18 06:38:31;;;;;;;15.48;9.57;;;19.50;99.90;;;;;;5104182;28;20688;-81
2023/08/18 06:40:58;;;;;;;14.48;9.93;;;19.50;99.90;;;;;;5107069;28;20222;-82
2023/08/18 06:43:25;;;;;;;17.45;9.95;;;19.40;99.90;;;;;;5111543;27;20239;-83
2023/08/18 06:45:51;;;;;;;17.73;10.27;;;19.30;99.90;;;;;;5106892;27;20227;-80
2023/08/18 06:48:18;;;;;;;14.70;9.88;;;19.50;99.90;;;;;;5106405;27;20266;-82
2023/08/18 06:50:45;;;;;;;19.63;10.98;;;19.50;99.90;;;;;;5108546;27;20273;-81
2023/08/18 06:53:12;;;;;;;18.20;10.23;;;19.60;99.90;;;;;;5099496;27;20202;-82
2023/08/18 06:55:38;;;;;;;17.50;9.90;;;19.60;99.90;;;;;;5083370;28;20207;-80
2023/08/18 06:58:26;;;;;;;15.60;10.45;;;19.70;99.90;;;;;;5090166;28;20195;-82
2023/08/18 07:00:53;;;;;;;17.80;10.65;;;19.80;99.90;;;;;;5110556;27;20240;-80
2023/08/18 07:03:20;;;;;;;17.75;11.07;;;19.80;99.90;;;;;;5110584;27;20195;-81
2023/08/18 07:05:47;;;;;;;18.45;10.75;;;19.80;99.90;;;;;;5105862;28;20210;-81
2023/08/18 07:08:14;;;;;;;19.35;11.15;;;19.80;99.90;;;;;;5112691;27;20199;-80
2023/08/18 07:10:42;;;;;;;18.52;10.82;;;19.80;99.90;;;;;;5115505;27;20200;-80
2023/08/18 07:13:10;;;;;;;17.95;10.55;;;19.80;99.90;;;;;;5102777;27;20200;-80
2023/08/18 07:15:37;;;;;;;16.13;10.55;;;19.90;99.90;;;;;;5115877;27;20255;-82
2023/08/18 07:18:04;;;;;;;17.15;11.10;;;19.80;99.90;;;;;;5098894;27;20200;-81
2023/08/18 07:20:31;;;;;;;18.27;10.70;;;19.80;99.90;;;;;;5105715;27;20264;-82
2023/08/18 07:22:58;;;;;;;15.55;10.13;;;20.00;99.90;;;;;;5096608;27;20206;-80
2023/08/18 07:25:25;;;;;;;18.42;10.77;;;20.10;99.90;;;;;;5104483;27;20207;-79
2023/08/18 07:27:52;;;;;;;16.95;10.32;;;20.20;99.90;;;;;;5098971;28;20708;-83
2023/08/18 07:30:19;;;;;;;20.17;11.40;;;20.30;99.90;;;;;;5113026;27;20280;-82
2023/08/18 07:32:45;;;;;;;18.08;11.25;;;20.40;99.90;;;;;;5097420;28;20248;-80
2023/08/18 07:35:12;;;;;;;17.77;10.73;;;20.40;99.90;;;;;;5107343;27;20222;-80
2023/08/18 07:37:39;;;;;;;18.42;11.00;;;20.40;99.90;;;;;;5087037;28;20188;-81
2023/08/18 07:40:09;;;;;;;15.20;9.68;;;20.30;99.90;;;;;;5110725;27;20233;-81
2023/08/18 07:42:38;;;;;;;18.13;10.95;;;20.50;99.90;;;;;;5107065;28;20206;-81
2023/08/18 07:45:06;;;;;;;16.38;10.45;;;20.60;99.90;;;;;;5099468;28;20203;-81
2023/08/18 07:47:34;;;;;;;18.45;11.45;;;20.80;99.90;;;;;;5103551;28;20223;-81
2023/08/18 07:50:03;;;;;;;17.52;11.38;;;20.90;99.90;;;;;;5093025;28;20231;-81
2023/08/18 07:52:30;;;;;;;19.15;11.27;;;21.00;99.90;;;;;;5093106;28;20262;-80
2023/08/18 07:54:58;;;;;;;16.20;10.68;;;21.10;99.90;;;;;;5092541;28;20204;-80
2023/08/18 07:57:24;;;;;;;17.02;10.98;;;21.20;99.90;;;;;;5090974;28;20250;-82
2023/08/18 07:59:51;;;;;;;18.15;10.85;;;21.40;99.90;;;;;;5069701;28;20277;-81
2023/08/18 08:02:18;;;;;;;17.25;10.80;;;21.50;99.90;;;;;;5089581;28;20212;-82
2023/08/18 08:04:56;;;;;;;17.83;10.73;;;21.90;99.90;;;;;;5091291;28;20203;-83
2023/08/18 08:07:24;;;;;;;18.35;11.20;;;22.10;99.90;;;;;;5089891;28;20211;-81
2023/08/18 08:09:53;;;;;;;16.05;10.88;;;22.20;99.90;;;;;;5089715;28;20301;-83
2023/08/18 08:12:21;;;;;;;17.48;10.63;;;22.10;99.90;;;;;;5095363;28;20199;-82
2023/08/18 08:14:48;;;;;;;16.17;10.88;;;21.90;99.90;;;;;;5093357;28;20261;-82
2023/08/18 08:17:15;;;;;;;15.40;10.15;;;22.00;99.90;;;;;;5098445;28;20227;-82
2023/08/18 08:19:41;;;;;;;15.73;10.35;;;22.10;99.90;;;;;;5089407;28;20224;-81
2023/08/18 08:22:11;;;;;;;15.85;10.52;;;22.30;99.90;;;;;;5095858;28;20261;-83
2023/08/18 08:24:38;;;;;;;16.48;10.55;;;22.40;99.90;;;;;;5097847;28;20206;-81
2023/08/18 08:27:05;;;;;;;17.58;10.90;;;22.40;99.90;;;;;;5091615;28;20206;-81
2023/08/18 08:29:32;;;;;;;17.20;10.27;;;22.50;99.90;;;;;;5091387;28;20268;-81
2023/08/18 08:31:59;;;;;;;15.23;9.45;;;22.50;99.90;;;;;;5086692;28;20216;-82
2023/08/18 08:34:26;;;;;;;17.30;11.15;;;22.50;99.90;;;;;;5088267;28;20212;-81
2023/08/18 08:36:53;;;;;;;16.92;10.45;;;22.50;99.90;;;;;;5080697;28;20755;-81
2023/08/18 08:39:20;;;;;;;16.77;10.00;;;22.50;99.90;;;;;;5087605;28;20273;-81
2023/08/18 08:41:47;;;;;;;16.75;10.13;;;22.50;99.90;;;;;;5076886;28;20211;-82
2023/08/18 08:44:13;;;;;;;17.58;9.60;;;22.50;99.90;;;;;;5099151;28;20649;-82
2023/08/18 08:46:41;;;;;;;15.70;9.80;;;22.50;99.90;;;;;;5081345;28;20211;-82
2023/08/18 08:49:08;;;;;;;16.13;10.63;;;22.60;99.90;;;;;;5089810;28;20197;-84
2023/08/18 08:51:37;;;;;;;16.70;9.85;;;22.60;99.90;;;;;;5097328;28;20258;-80
2023/08/18 08:54:06;;;;;;;18.55;9.05;;;22.60;99.90;;;;;;5100108;28;20199;-82
2023/08/18 08:56:35;;;;;;;19.65;10.13;;;22.60;99.90;;;;;;5101712;28;20192;-80
2023/08/18 08:59:02;;;;;;;19.58;9.80;;;22.70;99.90;;;;;;5088067;28;20216;-81
2023/08/18 09:01:31;;;;;;;19.17;10.00;;;22.70;99.90;;;;;;5089009;28;20232;-81
2023/08/18 09:03:59;;;;;;;16.05;10.82;;;22.60;99.90;;;;;;5095249;28;20211;-80
2023/08/18 09:06:26;;;;;;;16.02;9.65;;;22.60;99.90;;;;;;5089482;28;20204;-82
2023/08/18 09:08:53;;;;;;;18.65;9.57;;;22.60;99.90;;;;;;5082609;28;20203;-81
2023/08/18 09:11:41;;;;;;;18.13;9.15;;;22.60;99.90;;;;;;5097202;28;20678;-82
2023/08/18 09:14:09;;;;;;;16.33;9.75;;;22.80;99.90;;;;;;5095888;28;20209;-82
2023/08/18 09:16:37;;;;;;;16.55;9.63;;;22.80;99.90;;;;;;5097576;28;20274;-82
2023/08/18 09:19:04;;;;;;;13.82;8.80;;;23.00;99.90;;;;;;5092651;28;20242;-83
2023/08/18 09:21:34;;;;;;;13.70;9.27;;;23.00;99.90;;;;;;5082598;28;20216;-83
2023/08/18 09:24:01;;;;;;;14.15;9.73;;;23.20;99.90;;;;;;5073831;28;20191;-82
2023/08/18 09:26:31;;;;;;;15.57;9.05;;;23.20;99.90;;;;;;5072469;28;20262;-84
2023/08/18 09:29:02;;;;;;;14.02;8.70;;;23.40;99.90;;;;;;5098356;28;20191;-82
2023/08/18 09:31:30;;;;;;;12.00;8.52;;;23.60;99.90;;;;;;5062524;28;20240;-82
2023/08/18 09:33:58;;;;;;;11.50;7.80;;;23.90;99.90;;;;;;5095696;28;20197;-83
2023/08/18 09:36:25;;;;;;;13.80;8.23;;;24.50;99.90;;;;;;5098333;28;20634;-80
2023/08/18 09:38:52;;;;;;;10.70;8.30;;;24.90;99.90;;;;;;5082739;28;20239;-82
2023/08/18 09:41:19;;;;;;;12.98;8.13;;;24.70;99.90;;;;;;5093666;28;20231;-83
2023/08/18 09:43:46;;;;;;;8.80;7.45;;;25.20;99.90;;;;;;5087865;28;20226;-83
2023/08/18 09:46:15;;;;;;;10.48;7.88;;;25.20;99.90;;;;;;5094475;28;20273;-84
2023/08/18 09:48:46;;;;;;;11.32;8.48;;;25.70;99.90;;;;;;5114354;27;20219;-85
2023/08/18 09:51:18;;;;;;;12.10;8.52;;;25.40;99.90;;;;;;5117755;27;20687;-83
2023/08/18 09:53:59;;;;;;;12.95;8.40;;;25.30;99.90;;;;;;5110282;27;20696;-83
2023/08/18 09:56:30;;;;;;;11.45;7.65;;;25.50;99.90;;;;;;5116774;27;20187;-81
2023/08/18 09:59:02;;;;;;;10.27;7.82;;;25.70;99.90;;;;;;5113228;27;20195;-81
2023/08/18 10:01:32;;;;;;;11.85;8.40;;;26.00;99.90;;;;;;5097919;28;20630;-80
2023/08/18 10:03:59;;;;;;;11.73;7.93;;;27.00;99.90;;;;;;5109889;27;20183;-82
2023/08/18 10:06:27;;;;;;;10.98;7.70;;;26.30;99.90;;;;;;5099546;27;20247;-82
2023/08/18 10:08:56;;;;;;;12.32;7.78;;;26.10;99.90;;;;;;5113187;27;20236;-82
2023/08/18 10:11:23;;;;;;;10.95;7.82;;;26.80;99.90;;;;;;5108015;27;20247;-82
2023/08/18 10:13:57;;;;;;;10.60;7.55;;;27.10;99.90;;;;;;5102768;27;20298;-82
2023/08/18 10:16:25;;;;;;;12.65;8.40;;;27.00;99.90;;;;;;5107505;27;20218;-81
2023/08/18 10:18:55;;;;;;;9.40;7.43;;;26.90;99.90;;;;;;5107634;28;20191;-81
2023/08/18 10:21:23;;;;;;;10.18;7.47;;;27.00;99.90;;;;;;5088641;28;20234;-81
2023/08/18 10:23:50;;;;;;;10.65;8.15;;;27.40;99.90;;;;;;5107877;28;20284;-83
2023/08/18 10:26:17;;;;;;;10.38;7.03;;;27.00;99.90;;;;;;5102981;28;20194;-83
2023/08/18 10:28:45;;;;;;;12.18;8.70;;;26.90;99.90;;;;;;5112212;27;20199;-81
2023/08/18 10:31:14;;;;;;;11.20;7.65;;;27.50;99.90;;;;;;5121184;27;20215;-85
2023/08/18 10:33:48;;;;;;;11.70;7.97;;;27.10;99.90;;;;;;5117526;27;20277;-82
2023/08/18 10:36:25;;;;;;;10.63;7.88;;;27.10;99.90;;;;;;5117103;27;20306;-82
2023/08/18 10:38:55;;;;;;;9.52;8.10;;;27.00;99.90;;;;;;5095322;28;20191;-83
2023/08/18 10:41:28;;;;;;;9.32;7.22;;;27.10;99.90;;;;;;5106784;27;20250;-81
2023/08/18 10:43:57;;;;;;;8.30;6.72;;;27.10;99.90;;;;;;5106291;27;20199;-82
2023/08/18 10:46:34;;;;;;;10.18;7.70;;;27.30;99.90;;;;;;5100462;27;20750;-83
2023/08/18 10:49:01;;;;;;;9.07;6.78;;;27.50;99.90;;;;;;5089409;27;20230;-84
2023/08/18 10:51:28;;;;;;;9.45;6.80;;;27.20;99.90;;;;;;5112206;27;20217;-81
2023/08/18 10:53:56;;;;;;;10.23;8.05;;;27.00;99.90;;;;;;5092943;28;20635;-80
2023/08/18 10:56:23;;;;;;;9.55;7.18;;;26.90;99.90;;;;;;5113151;27;20542;-83
2023/08/18 10:58:51;;;;;;;9.95;7.20;;;27.00;99.90;;;;;;5086460;28;20202;-82
2023/08/18 11:01:20;;;;;;;8.95;6.97;;;26.90;99.90;;;;;;5110289;27;20628;-82
2023/08/18 11:03:48;;;;;;;8.90;6.70;;;27.30;99.90;;;;;;5114048;27;20203;-82
2023/08/18 11:06:15;;;;;;;7.80;6.65;;;27.00;99.90;;;;;;5094929;28;20203;-85
2023/08/18 11:08:43;;;;;;;9.52;7.40;;;27.00;99.90;;;;;;5095416;28;20200;-84
2023/08/18 11:11:15;;;;;;;9.27;7.05;;;27.00;99.90;;;;;;5098035;27;20616;-83
2023/08/18 11:13:44;;;;;;;10.70;7.47;;;27.10;99.90;;;;;;5101253;28;20199;-84
2023/08/18 11:16:11;;;;;;;10.80;7.13;;;27.40;99.90;;;;;;5111956;27;20727;-84
2023/08/18 11:18:41;;;;;;;10.50;7.68;;;27.70;99.90;;;;;;5088742;28;20745;-82
2023/08/18 11:21:10;;;;;;;10.60;7.68;;;27.30;99.90;;;;;;5107993;27;20305;-85
2023/08/18 11:23:37;;;;;;;11.15;8.00;;;27.20;99.90;;;;;;5094656;28;20203;-82
2023/08/18 11:26:05;;;;;;;10.30;7.82;;;27.40;99.90;;;;;;5110917;27;20632;-84
2023/08/18 11:28:33;;;;;;;12.73;8.00;;;27.00;99.90;;;;;;5095969;28;20192;-83
2023/08/18 11:31:05;;;;;;;10.07;7.93;;;27.00;99.90;;;;;;5119371;27;20219;-83
2023/08/18 11:33:32;;;;;;;12.40;7.43;;;27.00;99.90;;;;;;5098542;27;20211;-82
2023/08/18 11:35:59;;;;;;;12.98;8.63;;;27.10;99.90;;;;;;5110934;27;20203;-82
2023/08/18 11:38:26;;;;;;;10.88;8.27;;;27.20;99.90;;;;;;5094079;28;20183;-82
2023/08/18 11:40:53;;;;;;;12.55;9.23;;;27.60;99.90;;;;;;5105989;28;20567;-82
2023/08/18 11:43:21;;;;;;;11.68;8.70;;;27.40;99.90;;;;;;5083573;28;20625;-85
2023/08/18 11:45:51;;;;;;;11.38;8.80;;;27.50;99.90;;;;;;5100664;28;20214;-84
2023/08/18 11:48:20;;;;;;;10.15;7.70;;;27.40;99.90;;;;;;5095085;28;20660;-83
2023/08/18 11:50:47;;;;;;;9.43;7.13;;;27.30;99.90;;;;;;5109710;27;20208;-82
2023/08/18 11:53:24;;;;;;;10.85;7.80;;;27.40;99.90;;;;;;5111383;28;20203;-83
2023/08/18 11:55:51;;;;;;;11.45;8.82;;;27.50;99.90;;;;;;5092894;28;20208;-83
2023/08/18 11:58:23;;;;;;;10.45;7.90;;;27.50;99.90;;;;;;5108991;28;20203;-85
2023/08/18 12:00:49;;;;;;;10.52;8.32;;;27.60;99.90;;;;;;5109179;28;20243;-83
2023/08/18 12:03:24;;;;;;;9.98;7.38;;;27.70;99.90;;;;;;5087662;28;20280;-85
2023/08/18 12:05:54;;;;;;;11.05;7.63;;;27.70;99.90;;;;;;5092649;28;20197;-84
2023/08/18 12:08:22;;;;;;;11.27;8.25;;;27.80;99.90;;;;;;5094409;28;20205;-83
2023/08/18 12:10:50;;;;;;;10.32;8.52;;;27.80;99.90;;;;;;5125231;28;20268;-83
2023/08/18 12:13:18;;;;;;;10.38;7.70;;;28.00;99.90;;;;;;5108512;28;20191;-85
2023/08/18 12:15:45;;;;;;;9.82;8.10;;;28.00;99.90;;;;;;5092549;28;20218;-84
2023/08/18 12:18:12;;;;;;;10.57;8.23;;;28.40;99.90;;;;;;5091495;28;20681;-81
2023/08/18 12:20:39;;;;;;;11.65;8.57;;;28.20;99.90;;;;;;5105481;28;20712;-81
2023/08/18 12:23:05;;;;;;;11.98;8.70;;;28.30;99.90;;;;;;5105741;28;20207;-83
2023/08/18 12:25:32;;;;;;;10.80;8.20;;;28.10;99.90;;;;;;5093555;28;20207;-81
2023/08/18 12:27:59;;;;;;;10.98;7.82;;;28.30;99.90;;;;;;5096082;28;20288;-82
2023/08/18 12:30:26;;;;;;;12.23;7.72;;;28.50;99.90;;;;;;5110576;28;20315;-83
2023/08/18 12:32:53;;;;;;;11.45;7.57;;;28.60;99.90;;;;;;5100632;28;20203;-81
2023/08/18 12:35:20;;;;;;;10.35;8.32;;;28.50;99.90;;;;;;5100449;28;20200;-82
2023/08/18 12:37:47;;;;;;;11.20;7.95;;;28.70;99.90;;;;;;5111193;28;20238;-84
2023/08/18 12:40:14;;;;;;;9.07;7.68;;;28.80;99.90;;;;;;5109061;28;20212;-82
2023/08/18 12:42:41;;;;;;;10.20;8.18;;;28.70;99.90;;;;;;5090017;28;20310;-81
2023/08/18 12:45:09;;;;;;;8.52;6.82;;;28.70;99.90;;;;;;5103022;28;20187;-83
2023/08/18 12:47:38;;;;;;;8.80;7.30;;;28.60;99.90;;;;;;5090715;28;20231;-82
2023/08/18 12:50:06;;;;;;;10.35;8.00;;;29.10;99.90;;;;;;5107657;28;20241;-82
2023/08/18 12:52:33;;;;;;;7.78;6.88;;;;;;;;;;5084853;28;20213;-82
2023/08/18 12:55:00;;;;;;;9.40;7.20;;;28.70;99.90;;;;;;5088485;28;20578;-83
2023/08/18 12:57:27;;;;;;;10.77;7.72;;;28.70;99.90;;;;;;5102667;28;20207;-84
2023/08/18 12:59:54;;;;;;;9.40;7.20;;;28.70;99.90;;;;;;5098947;27;20673;-82
2023/08/18 13:02:21;;;;;;;9.40;6.60;;;28.70;99.90;;;;;;5114576;27;20230;-83
2023/08/18 13:04:48;;;;;;;8.38;7.10;;;28.80;99.90;;;;;;5089947;27;20196;-82
2023/08/18 13:07:15;;;;;;;10.13;6.50;;;28.80;99.90;;;;;;5099619;28;20314;-82